sensor_id;sensor_type;location;lat;lon;timestamp;pressure;altitude;pressure_sealevel;temperature;humidity
19447;BME280;9862;49.462;11.054;2023-12-22T00:01:51;96335.16;;;6.18;100.00
19447;BME280;9862;49.462;11.054;2023-12-22T00:04:17;96352.59;;;6.19;100.00
19447;BME280;9862;49.462;11.054;2023-12-22T00:06:44;96356.34;;;6.11;100.00
19447;BME280;9862;49.462;11.054;2023-12-22T00:09:14;96350.34;;;6.04;100.00
19447;BME280;9862;49.462;11.054;2023-12-22T00:11:41;96351.94;;;6.05;100.00
19447;BME280;9862;49.462;11.054;2023-12-22T00:14:07;96353.03;;;5.97;100.00
19447;BME280;9862;49.462;11.054;2023-12-22T00:16:33;96352.84;;;5.99;100.00
19447;BME280;9862;49.462;11.054;2023-12-22T00:19:00;96364.41;;;5.80;100.00
19447;BME280;9862;49.462;11.054;2023-12-22T00:21:26;96355.88;;;5.78;100.00
19447;BME280;9862;49.462;11.054;2023-12-22T00:23:53;96345.25;;;5.84;100.00
19447;BME280;9862;49.462;11.054;2023-12-22T00:26:21;96351.31;;;5.91;100.00
19447;BME280;9862;49.462;11.054;2023-12-22T00:28:48;96324.69;;;5.93;100.00
19447;BME280;9862;49.462;11.054;2023-12-22T00:31:14;96319.38;;;5.74;100.00
19447;BME280;9862;49.462;11.054;2023-12-22T00:33:41;96317.81;;;5.67;100.00
19447;BME280;9862;49.462;11.054;2023-12-22T00:36:07;96323.91;;;5.67;100.00
19447;BME280;9862;49.462;11.054;2023-12-22T00:38:34;96320.84;;;5.70;100.00
19447;BME280;9862;49.462;11.054;2023-12-22T00:41:00;96320.41;;;5.73;100.00
19447;BME280;9862;49.462;11.054;2023-12-22T00:43:28;96315.34;;;5.72;100.00
19447;BME280;9862;49.462;11.054;2023-12-22T00:45:53;96325.38;;;5.82;100.00
19447;BME280;9862;49.462;11.054;2023-12-22T00:48:21;96357.88;;;5.82;100.00
19447;BME280;9862;49.462;11.054;2023-12-22T00:50:47;96362.75;;;5.79;100.00
19447;BME280;9862;49.462;11.054;2023-12-22T00:53:14;96360.13;;;5.79;100.00
19447;BME280;9862;49.462;11.054;2023-12-22T00:55:40;96352.00;;;5.62;100.00
19447;BME280;9862;49.462;11.054;2023-12-22T00:58:06;96344.72;;;5.57;100.00
19447;BME280;9862;49.462;11.054;2023-12-22T01:00:34;96341.50;;;5.55;100.00
19447;BME280;9862;49.462;11.054;2023-12-22T01:03:01;96323.78;;;5.62;100.00
19447;BME280;9862;49.462;11.054;2023-12-22T01:05:28;96321.69;;;5.46;100.00
19447;BME280;9862;49.462;11.054;2023-12-22T01:07:54;96317.38;;;5.52;100.00
19447;BME280;9862;49.462;11.054;2023-12-22T01:10:20;96321.88;;;5.51;100.00
19447;BME280;9862;49.462;11.054;2023-12-22T01:12:47;96330.50;;;5.58;100.00
19447;BME280;9862;49.462;11.054;2023-12-22T01:15:13;96320.16;;;5.57;100.00
19447;BME280;9862;49.462;11.054;2023-12-22T01:17:41;96323.25;;;5.54;100.00
19447;BME280;9862;49.462;11.054;2023-12-22T01:20:08;96318.34;;;5.57;100.00
19447;BME280;9862;49.462;11.054;2023-12-22T01:22:35;96313.06;;;5.57;100.00
19447;BME280;9862;49.462;11.054;2023-12-22T01:25:03;96326.53;;;5.49;100.00
19447;BME280;9862;49.462;11.054;2023-12-22T01:27:30;96342.50;;;5.36;100.00
19447;BME280;9862;49.462;11.054;2023-12-22T01:29:56;96324.91;;;5.48;100.00
19447;BME280;9862;49.462;11.054;2023-12-22T01:32:23;96332.41;;;5.51;100.00
19447;BME280;9862;49.462;11.054;2023-12-22T01:34:50;96346.03;;;5.48;100.00
19447;BME280;9862;49.462;11.054;2023-12-22T01:37:17;96342.31;;;5.56;100.00
19447;BME280;9862;49.462;11.054;2023-12-22T01:39:43;96337.25;;;5.54;100.00
19447;BME280;9862;49.462;11.054;2023-12-22T01:42:10;96350.88;;;5.51;100.00
19447;BME280;9862;49.462;11.054;2023-12-22T01:44:36;96351.19;;;5.61;100.00
19447;BME280;9862;49.462;11.054;2023-12-22T01:47:03;96340.25;;;5.58;100.00
19447;BME280;9862;49.462;11.054;2023-12-22T01:49:30;96352.56;;;5.64;100.00
19447;BME280;9862;49.462;11.054;2023-12-22T01:51:58;96343.09;;;5.56;100.00
19447;BME280;9862;49.462;11.054;2023-12-22T01:54:24;96336.66;;;5.52;100.00
19447;BME280;9862;49.462;11.054;2023-12-22T01:56:51;96331.31;;;5.59;100.00
19447;BME280;9862;49.462;11.054;2023-12-22T01:59:17;96337.25;;;5.54;100.00
19447;BME280;9862;49.462;11.054;2023-12-22T02:01:44;96328.75;;;5.52;100.00
19447;BME280;9862;49.462;11.054;2023-12-22T02:04:11;96315.97;;;5.49;100.00
19447;BME280;9862;49.462;11.054;2023-12-22T02:06:37;96319.34;;;5.38;100.00
19447;BME280;9862;49.462;11.054;2023-12-22T02:09:05;96298.69;;;5.53;100.00
19447;BME280;9862;49.462;11.054;2023-12-22T02:11:32;96322.75;;;5.63;100.00
19447;BME280;9862;49.462;11.054;2023-12-22T02:13:58;96335.34;;;5.43;100.00
19447;BME280;9862;49.462;11.054;2023-12-22T02:16:26;96330.69;;;5.38;100.00
19447;BME280;9862;49.462;11.054;2023-12-22T02:18:57;96335.47;;;5.48;100.00
19447;BME280;9862;49.462;11.054;2023-12-22T02:21:25;96317.31;;;5.58;100.00
19447;BME280;9862;49.462;11.054;2023-12-22T02:23:53;96312.69;;;5.54;100.00
19447;BME280;9862;49.462;11.054;2023-12-22T02:26:22;96303.69;;;5.61;100.00
19447;BME280;9862;49.462;11.054;2023-12-22T02:28:51;96321.50;;;5.66;100.00
19447;BME280;9862;49.462;11.054;2023-12-22T02:31:20;96314.16;;;5.68;100.00
19447;BME280;9862;49.462;11.054;2023-12-22T02:33:48;96319.00;;;5.71;100.00
19447;BME280;9862;49.462;11.054;2023-12-22T02:36:17;96333.00;;;5.71;100.00
19447;BME280;9862;49.462;11.054;2023-12-22T02:38:44;96316.50;;;5.76;100.00
19447;BME280;9862;49.462;11.054;2023-12-22T02:41:12;96321.38;;;5.79;100.00
19447;BME280;9862;49.462;11.054;2023-12-22T02:43:40;96326.75;;;5.91;100.00
19447;BME280;9862;49.462;11.054;2023-12-22T02:46:12;96355.59;;;5.86;100.00
19447;BME280;9862;49.462;11.054;2023-12-22T02:48:38;96347.63;;;5.92;100.00
19447;BME280;9862;49.462;11.054;2023-12-22T02:51:05;96351.91;;;5.87;100.00
19447;BME280;9862;49.462;11.054;2023-12-22T02:53:38;96371.72;;;5.78;100.00
19447;BME280;9862;49.462;11.054;2023-12-22T02:56:04;96372.97;;;5.75;100.00
19447;BME280;9862;49.462;11.054;2023-12-22T02:58:32;96370.47;;;5.80;100.00
19447;BME280;9862;49.462;11.054;2023-12-22T03:00:59;96377.38;;;5.81;100.00
19447;BME280;9862;49.462;11.054;2023-12-22T03:03:25;96369.16;;;5.71;100.00
19447;BME280;9862;49.462;11.054;2023-12-22T03:05:52;96359.81;;;5.68;100.00
19447;BME280;9862;49.462;11.054;2023-12-22T03:08:18;96371.84;;;5.64;100.00
19447;BME280;9862;49.462;11.054;2023-12-22T03:10:45;96371.28;;;5.62;100.00
19447;BME280;9862;49.462;11.054;2023-12-22T03:13:12;96376.38;;;5.57;100.00
19447;BME280;9862;49.462;11.054;2023-12-22T03:15:40;96383.25;;;5.58;100.00
19447;BME280;9862;49.462;11.054;2023-12-22T03:18:08;96384.56;;;5.49;100.00
19447;BME280;9862;49.462;11.054;2023-12-22T03:20:35;96368.75;;;5.49;100.00
19447;BME280;9862;49.462;11.054;2023-12-22T03:23:04;96387.47;;;5.66;100.00
19447;BME280;9862;49.462;11.054;2023-12-22T03:25:32;96389.78;;;5.56;100.00
19447;BME280;9862;49.462;11.054;2023-12-22T03:27:59;96384.03;;;5.65;100.00
19447;BME280;9862;49.462;11.054;2023-12-22T03:30:27;96378.81;;;5.77;100.00
19447;BME280;9862;49.462;11.054;2023-12-22T03:32:56;96390.78;;;5.80;100.00
19447;BME280;9862;49.462;11.054;2023-12-22T03:35:23;96407.63;;;5.60;100.00
19447;BME280;9862;49.462;11.054;2023-12-22T03:37:49;96393.81;;;5.58;100.00
19447;BME280;9862;49.462;11.054;2023-12-22T03:40:16;96396.94;;;5.73;100.00
19447;BME280;9862;49.462;11.054;2023-12-22T03:42:42;96396.50;;;5.77;100.00
19447;BME280;9862;49.462;11.054;2023-12-22T03:45:08;96401.59;;;5.53;100.00
19447;BME280;9862;49.462;11.054;2023-12-22T03:47:35;96402.25;;;5.24;100.00
19447;BME280;9862;49.462;11.054;2023-12-22T03:50:03;96384.38;;;5.26;100.00
19447;BME280;9862;49.462;11.054;2023-12-22T03:52:29;96373.66;;;5.21;100.00
19447;BME280;9862;49.462;11.054;2023-12-22T03:54:56;96363.09;;;5.21;100.00
19447;BME280;9862;49.462;11.054;2023-12-22T03:57:22;96383.84;;;5.17;100.00
19447;BME280;9862;49.462;11.054;2023-12-22T03:59:49;96378.00;;;5.08;100.00
19447;BME280;9862;49.462;11.054;2023-12-22T04:02:15;96381.09;;;5.05;100.00
19447;BME280;9862;49.462;11.054;2023-12-22T04:04:41;96377.66;;;5.05;100.00
19447;BME280;9862;49.462;11.054;2023-12-22T04:07:09;96378.75;;;4.91;100.00
19447;BME280;9862;49.462;11.054;2023-12-22T04:09:36;96366.69;;;5.01;100.00
19447;BME280;9862;49.462;11.054;2023-12-22T04:12:03;96376.44;;;5.01;100.00
19447;BME280;9862;49.462;11.054;2023-12-22T04:14:29;96372.97;;;5.07;100.00
19447;BME280;9862;49.462;11.054;2023-12-22T04:16:55;96382.91;;;5.05;100.00
19447;BME280;9862;49.462;11.054;2023-12-22T04:19:22;96391.84;;;5.04;100.00
19447;BME280;9862;49.462;11.054;2023-12-22T04:21:48;96397.69;;;5.12;100.00
19447;BME280;9862;49.462;11.054;2023-12-22T04:24:16;96403.22;;;5.04;100.00
19447;BME280;9862;49.462;11.054;2023-12-22T04:26:43;96395.56;;;4.96;100.00
19447;BME280;9862;49.462;11.054;2023-12-22T04:29:09;96391.63;;;5.05;100.00
19447;BME280;9862;49.462;11.054;2023-12-22T04:31:36;96392.00;;;5.09;100.00
19447;BME280;9862;49.462;11.054;2023-12-22T04:34:02;96392.44;;;5.06;100.00
19447;BME280;9862;49.462;11.054;2023-12-22T04:36:28;96394.81;;;5.14;100.00
19447;BME280;9862;49.462;11.054;2023-12-22T04:38:55;96411.38;;;4.96;100.00
19447;BME280;9862;49.462;11.054;2023-12-22T04:41:23;96405.31;;;4.89;100.00
19447;BME280;9862;49.462;11.054;2023-12-22T04:43:49;96406.94;;;4.90;100.00
19447;BME280;9862;49.462;11.054;2023-12-22T04:46:15;96409.22;;;4.80;100.00
19447;BME280;9862;49.462;11.054;2023-12-22T04:48:42;96409.41;;;4.85;100.00
19447;BME280;9862;49.462;11.054;2023-12-22T04:51:08;96409.00;;;4.81;100.00
19447;BME280;9862;49.462;11.054;2023-12-22T04:53:35;96420.63;;;4.74;100.00
19447;BME280;9862;49.462;11.054;2023-12-22T04:56:01;96409.41;;;4.85;100.00
19447;BME280;9862;49.462;11.054;2023-12-22T04:58:29;96425.84;;;4.80;100.00
19447;BME280;9862;49.462;11.054;2023-12-22T05:00:55;96429.00;;;4.64;100.00
19447;BME280;9862;49.462;11.054;2023-12-22T05:03:22;96416.88;;;4.88;100.00
19447;BME280;9862;49.462;11.054;2023-12-22T05:05:48;96435.19;;;4.83;100.00
19447;BME280;9862;49.462;11.054;2023-12-22T05:08:15;96415.53;;;4.79;100.00
19447;BME280;9862;49.462;11.054;2023-12-22T05:10:41;96432.53;;;4.83;100.00
19447;BME280;9862;49.462;11.054;2023-12-22T05:13:08;96428.47;;;4.80;100.00
19447;BME280;9862;49.462;11.054;2023-12-22T05:15:36;96436.78;;;4.84;100.00
19447;BME280;9862;49.462;11.054;2023-12-22T05:18:02;96441.78;;;4.92;100.00
19447;BME280;9862;49.462;11.054;2023-12-22T05:20:29;96456.34;;;5.01;100.00
19447;BME280;9862;49.462;11.054;2023-12-22T05:22:55;96465.25;;;5.00;100.00
19447;BME280;9862;49.462;11.054;2023-12-22T05:25:22;96465.59;;;5.10;100.00
19447;BME280;9862;49.462;11.054;2023-12-22T05:27:48;96467.66;;;5.08;100.00
19447;BME280;9862;49.462;11.054;2023-12-22T05:30:15;96477.75;;;5.18;100.00
19447;BME280;9862;49.462;11.054;2023-12-22T05:32:42;96478.97;;;5.15;100.00
19447;BME280;9862;49.462;11.054;2023-12-22T05:35:09;96455.84;;;5.17;100.00
19447;BME280;9862;49.462;11.054;2023-12-22T05:37:36;96460.09;;;5.18;100.00
19447;BME280;9862;49.462;11.054;2023-12-22T05:40:03;96460.78;;;5.07;100.00
19447;BME280;9862;49.462;11.054;2023-12-22T05:42:31;96441.72;;;5.05;100.00
19447;BME280;9862;49.462;11.054;2023-12-22T05:44:58;96478.84;;;5.04;100.00
19447;BME280;9862;49.462;11.054;2023-12-22T05:47:24;96459.41;;;4.98;100.00
19447;BME280;9862;49.462;11.054;2023-12-22T05:49:52;96463.91;;;4.91;100.00
19447;BME280;9862;49.462;11.054;2023-12-22T05:52:18;96449.50;;;4.94;100.00
19447;BME280;9862;49.462;11.054;2023-12-22T05:54:45;96461.81;;;4.62;100.00
19447;BME280;9862;49.462;11.054;2023-12-22T05:57:11;96487.94;;;4.70;100.00
19447;BME280;9862;49.462;11.054;2023-12-22T05:59:37;96475.19;;;4.67;100.00
19447;BME280;9862;49.462;11.054;2023-12-22T06:02:04;96447.97;;;4.73;100.00
19447;BME280;9862;49.462;11.054;2023-12-22T06:04:30;96451.97;;;4.82;100.00
19447;BME280;9862;49.462;11.054;2023-12-22T06:06:58;96446.41;;;4.65;100.00
19447;BME280;9862;49.462;11.054;2023-12-22T06:09:25;96452.72;;;4.64;100.00
19447;BME280;9862;49.462;11.054;2023-12-22T06:11:51;96446.06;;;4.48;100.00
19447;BME280;9862;49.462;11.054;2023-12-22T06:14:18;96439.94;;;4.61;100.00
19447;BME280;9862;49.462;11.054;2023-12-22T06:16:44;96441.75;;;4.60;100.00
19447;BME280;9862;49.462;11.054;2023-12-22T06:19:11;96453.41;;;4.40;100.00
19447;BME280;9862;49.462;11.054;2023-12-22T06:21:38;96453.31;;;4.59;100.00
19447;BME280;9862;49.462;11.054;2023-12-22T06:24:06;96465.53;;;4.54;100.00
19447;BME280;9862;49.462;11.054;2023-12-22T06:26:33;96456.97;;;4.58;100.00
19447;BME280;9862;49.462;11.054;2023-12-22T06:28:59;96470.38;;;4.50;100.00
19447;BME280;9862;49.462;11.054;2023-12-22T06:31:26;96449.59;;;4.22;100.00
19447;BME280;9862;49.462;11.054;2023-12-22T06:33:52;96455.06;;;4.27;100.00
19447;BME280;9862;49.462;11.054;2023-12-22T06:36:19;96439.88;;;4.23;100.00
19447;BME280;9862;49.462;11.054;2023-12-22T06:38:46;96428.91;;;4.39;100.00
19447;BME280;9862;49.462;11.054;2023-12-22T06:41:19;96425.84;;;4.42;100.00
19447;BME280;9862;49.462;11.054;2023-12-22T06:43:45;96427.72;;;4.35;100.00
19447;BME280;9862;49.462;11.054;2023-12-22T06:46:14;96422.44;;;4.35;100.00
19447;BME280;9862;49.462;11.054;2023-12-22T06:48:41;96418.94;;;4.41;100.00
19447;BME280;9862;49.462;11.054;2023-12-22T06:51:07;96427.94;;;4.27;100.00
19447;BME280;9862;49.462;11.054;2023-12-22T06:53:33;96430.41;;;4.15;100.00
19447;BME280;9862;49.462;11.054;2023-12-22T06:56:00;96418.06;;;4.16;100.00
19447;BME280;9862;49.462;11.054;2023-12-22T06:58:28;96416.59;;;4.26;100.00
19447;BME280;9862;49.462;11.054;2023-12-22T07:00:54;96414.56;;;4.22;100.00
19447;BME280;9862;49.462;11.054;2023-12-22T07:03:21;96424.28;;;4.28;100.00
19447;BME280;9862;49.462;11.054;2023-12-22T07:05:47;96414.28;;;4.43;100.00
19447;BME280;9862;49.462;11.054;2023-12-22T07:08:14;96425.00;;;4.48;100.00
19447;BME280;9862;49.462;11.054;2023-12-22T07:10:40;96420.09;;;4.58;100.00
19447;BME280;9862;49.462;11.054;2023-12-22T07:13:07;96427.78;;;4.60;100.00
19447;BME280;9862;49.462;11.054;2023-12-22T07:15:34;96426.09;;;4.72;100.00
19447;BME280;9862;49.462;11.054;2023-12-22T07:18:01;96424.03;;;4.81;100.00
19447;BME280;9862;49.462;11.054;2023-12-22T07:20:28;96423.34;;;4.92;100.00
19447;BME280;9862;49.462;11.054;2023-12-22T07:22:55;96437.88;;;5.01;100.00
19447;BME280;9862;49.462;11.054;2023-12-22T07:25:21;96436.91;;;4.96;100.00
19447;BME280;9862;49.462;11.054;2023-12-22T07:27:48;96433.63;;;5.00;100.00
19447;BME280;9862;49.462;11.054;2023-12-22T07:30:15;96425.66;;;5.13;100.00
19447;BME280;9862;49.462;11.054;2023-12-22T07:32:46;96439.25;;;5.10;100.00
19447;BME280;9862;49.462;11.054;2023-12-22T07:35:17;96449.38;;;5.13;100.00
19447;BME280;9862;49.462;11.054;2023-12-22T07:37:43;96451.78;;;5.22;100.00
19447;BME280;9862;49.462;11.054;2023-12-22T07:40:10;96456.06;;;5.16;100.00
19447;BME280;9862;49.462;11.054;2023-12-22T07:42:36;96463.53;;;5.19;100.00
19447;BME280;9862;49.462;11.054;2023-12-22T07:45:04;96466.13;;;5.26;100.00
19447;BME280;9862;49.462;11.054;2023-12-22T07:47:30;96437.00;;;5.39;100.00
19447;BME280;9862;49.462;11.054;2023-12-22T07:49:58;96437.44;;;5.36;100.00
19447;BME280;9862;49.462;11.054;2023-12-22T07:52:25;96440.09;;;5.36;100.00
19447;BME280;9862;49.462;11.054;2023-12-22T07:54:51;96433.63;;;5.32;100.00
19447;BME280;9862;49.462;11.054;2023-12-22T07:57:18;96451.22;;;5.38;100.00
19447;BME280;9862;49.462;11.054;2023-12-22T07:59:44;96461.38;;;5.41;100.00
19447;BME280;9862;49.462;11.054;2023-12-22T08:02:11;96461.38;;;5.41;100.00
19447;BME280;9862;49.462;11.054;2023-12-22T08:04:37;96441.69;;;5.37;100.00
19447;BME280;9862;49.462;11.054;2023-12-22T08:07:05;96438.63;;;5.40;100.00
19447;BME280;9862;49.462;11.054;2023-12-22T08:09:32;96437.06;;;5.57;100.00
19447;BME280;9862;49.462;11.054;2023-12-22T08:11:58;96436.53;;;5.49;100.00
19447;BME280;9862;49.462;11.054;2023-12-22T08:14:25;96435.69;;;5.55;100.00
19447;BME280;9862;49.462;11.054;2023-12-22T08:16:51;96454.84;;;5.43;100.00
19447;BME280;9862;49.462;11.054;2023-12-22T08:19:18;96435.72;;;5.48;100.00
19447;BME280;9862;49.462;11.054;2023-12-22T08:21:45;96435.22;;;5.58;100.00
19447;BME280;9862;49.462;11.054;2023-12-22T08:24:13;96432.59;;;5.58;100.00
19447;BME280;9862;49.462;11.054;2023-12-22T08:26:40;96431.38;;;5.60;100.00
19447;BME280;9862;49.462;11.054;2023-12-22T08:29:06;96433.56;;;5.63;100.00
19447;BME280;9862;49.462;11.054;2023-12-22T08:31:33;96451.25;;;5.63;100.00
19447;BME280;9862;49.462;11.054;2023-12-22T08:34:00;96464.00;;;5.66;100.00
19447;BME280;9862;49.462;11.054;2023-12-22T08:36:26;96473.78;;;5.59;100.00
19447;BME280;9862;49.462;11.054;2023-12-22T08:38:52;96480.81;;;5.71;100.00
19447;BME280;9862;49.462;11.054;2023-12-22T08:41:21;96486.72;;;5.67;100.00
19447;BME280;9862;49.462;11.054;2023-12-22T08:43:47;96477.91;;;5.55;100.00
19447;BME280;9862;49.462;11.054;2023-12-22T08:46:14;96477.66;;;5.56;100.00
19447;BME280;9862;49.462;11.054;2023-12-22T08:48:41;96468.81;;;5.69;100.00
19447;BME280;9862;49.462;11.054;2023-12-22T08:51:07;96468.19;;;5.73;100.00
19447;BME280;9862;49.462;11.054;2023-12-22T08:53:34;96493.13;;;5.78;100.00
19447;BME280;9862;49.462;11.054;2023-12-22T08:56:02;96487.44;;;5.81;100.00
19447;BME280;9862;49.462;11.054;2023-12-22T08:58:30;96499.16;;;5.85;100.00
19447;BME280;9862;49.462;11.054;2023-12-22T09:00:56;96512.13;;;5.86;100.00
19447;BME280;9862;49.462;11.054;2023-12-22T09:03:23;96506.41;;;5.96;100.00
19447;BME280;9862;49.462;11.054;2023-12-22T09:05:52;96508.63;;;5.99;100.00
19447;BME280;9862;49.462;11.054;2023-12-22T09:08:18;96510.03;;;6.01;100.00
19447;BME280;9862;49.462;11.054;2023-12-22T09:10:44;96500.72;;;5.99;100.00
19447;BME280;9862;49.462;11.054;2023-12-22T09:13:11;96504.88;;;6.07;100.00
19447;BME280;9862;49.462;11.054;2023-12-22T09:15:39;96507.03;;;6.16;100.00
19447;BME280;9862;49.462;11.054;2023-12-22T09:18:06;96498.69;;;6.19;100.00
19447;BME280;9862;49.462;11.054;2023-12-22T09:20:33;96514.66;;;6.24;100.00
19447;BME280;9862;49.462;11.054;2023-12-22T09:22:59;96514.53;;;6.19;100.00
19447;BME280;9862;49.462;11.054;2023-12-22T09:25:26;96520.47;;;6.33;100.00
19447;BME280;9862;49.462;11.054;2023-12-22T09:27:52;96526.56;;;6.34;100.00
19447;BME280;9862;49.462;11.054;2023-12-22T09:30:18;96528.19;;;6.53;100.00
19447;BME280;9862;49.462;11.054;2023-12-22T09:32:47;96534.78;;;6.44;100.00
19447;BME280;9862;49.462;11.054;2023-12-22T09:35:14;96535.09;;;6.54;100.00
19447;BME280;9862;49.462;11.054;2023-12-22T09:37:41;96530.09;;;6.64;100.00
19447;BME280;9862;49.462;11.054;2023-12-22T09:40:08;96550.09;;;6.78;100.00
19447;BME280;9862;49.462;11.054;2023-12-22T09:42:35;96571.25;;;6.78;100.00
19447;BME280;9862;49.462;11.054;2023-12-22T09:45:03;96584.00;;;6.81;100.00
19447;BME280;9862;49.462;11.054;2023-12-22T09:47:31;96576.38;;;6.73;100.00
19447;BME280;9862;49.462;11.054;2023-12-22T09:50:01;96575.50;;;6.61;100.00
19447;BME280;9862;49.462;11.054;2023-12-22T09:52:28;96590.09;;;6.64;100.00
19447;BME280;9862;49.462;11.054;2023-12-22T09:54:56;96565.19;;;6.53;100.00
19447;BME280;9862;49.462;11.054;2023-12-22T09:57:23;96554.19;;;6.56;100.00
19447;BME280;9862;49.462;11.054;2023-12-22T09:59:51;96549.75;;;6.31;100.00
19447;BME280;9862;49.462;11.054;2023-12-22T10:02:18;96540.72;;;6.21;100.00
19447;BME280;9862;49.462;11.054;2023-12-22T10:04:44;96531.41;;;6.18;100.00
19447;BME280;9862;49.462;11.054;2023-12-22T10:07:12;96525.09;;;6.19;100.00
19447;BME280;9862;49.462;11.054;2023-12-22T10:09:40;96503.56;;;6.16;100.00
19447;BME280;9862;49.462;11.054;2023-12-22T10:12:07;96493.09;;;6.09;100.00
19447;BME280;9862;49.462;11.054;2023-12-22T10:14:35;96469.94;;;6.29;100.00
19447;BME280;9862;49.462;11.054;2023-12-22T10:17:03;96465.00;;;6.33;100.00
19447;BME280;9862;49.462;11.054;2023-12-22T10:19:29;96459.66;;;6.40;100.00
19447;BME280;9862;49.462;11.054;2023-12-22T10:21:56;96475.22;;;6.48;100.00
19447;BME280;9862;49.462;11.054;2023-12-22T10:24:39;96481.31;;;6.48;100.00
19447;BME280;9862;49.462;11.054;2023-12-22T10:27:08;96508.28;;;6.14;100.00
19447;BME280;9862;49.462;11.054;2023-12-22T10:29:34;96500.63;;;5.81;100.00
19447;BME280;9862;49.462;11.054;2023-12-22T10:32:01;96499.44;;;5.77;100.00
19447;BME280;9862;49.462;11.054;2023-12-22T10:34:28;96512.84;;;5.50;100.00
19447;BME280;9862;49.462;11.054;2023-12-22T10:36:54;96483.50;;;5.65;100.00
19447;BME280;9862;49.462;11.054;2023-12-22T10:39:20;96479.28;;;6.07;100.00
19447;BME280;9862;49.462;11.054;2023-12-22T10:41:48;96460.16;;;5.87;100.00
19447;BME280;9862;49.462;11.054;2023-12-22T10:44:15;96469.97;;;5.80;100.00
19447;BME280;9862;49.462;11.054;2023-12-22T10:46:43;96445.75;;;5.64;100.00
19447;BME280;9862;49.462;11.054;2023-12-22T10:49:09;96443.84;;;5.71;100.00
19447;BME280;9862;49.462;11.054;2023-12-22T10:51:35;96436.53;;;5.73;100.00
19447;BME280;9862;49.462;11.054;2023-12-22T10:54:03;96420.81;;;5.79;100.00
19447;BME280;9862;49.462;11.054;2023-12-22T10:56:30;96405.88;;;5.72;100.00
19447;BME280;9862;49.462;11.054;2023-12-22T10:58:58;96418.00;;;5.80;100.00
19447;BME280;9862;49.462;11.054;2023-12-22T11:01:25;96409.78;;;5.88;100.00
19447;BME280;9862;49.462;11.054;2023-12-22T11:03:54;96409.97;;;5.93;100.00
19447;BME280;9862;49.462;11.054;2023-12-22T11:06:23;96411.66;;;6.06;100.00
19447;BME280;9862;49.462;11.054;2023-12-22T11:08:51;96405.34;;;6.07;100.00
19447;BME280;9862;49.462;11.054;2023-12-22T11:11:20;96382.25;;;6.21;100.00
19447;BME280;9862;49.462;11.054;2023-12-22T11:13:54;96388.97;;;6.17;100.00
19447;BME280;9862;49.462;11.054;2023-12-22T11:16:23;96384.66;;;6.22;100.00
19447;BME280;9862;49.462;11.054;2023-12-22T11:18:50;96379.03;;;6.19;100.00
19447;BME280;9862;49.462;11.054;2023-12-22T11:21:19;96384.72;;;6.16;100.00
19447;BME280;9862;49.462;11.054;2023-12-22T11:23:47;96382.25;;;6.21;100.00
19447;BME280;9862;49.462;11.054;2023-12-22T11:26:15;96396.19;;;6.10;100.00
19447;BME280;9862;49.462;11.054;2023-12-22T11:28:42;96380.91;;;6.12;100.00
19447;BME280;9862;49.462;11.054;2023-12-22T11:31:11;96380.56;;;6.08;100.00
19447;BME280;9862;49.462;11.054;2023-12-22T11:33:39;96376.91;;;6.09;100.00
19447;BME280;9862;49.462;11.054;2023-12-22T11:36:06;96353.03;;;6.16;100.00
19447;BME280;9862;49.462;11.054;2023-12-22T11:38:33;96341.94;;;6.25;100.00
19447;BME280;9862;49.462;11.054;2023-12-22T11:40:59;96339.31;;;6.25;100.00
19447;BME280;9862;49.462;11.054;2023-12-22T11:43:26;96348.25;;;6.24;100.00
19447;BME280;9862;49.462;11.054;2023-12-22T11:45:53;96333.72;;;6.34;100.00
19447;BME280;9862;49.462;11.054;2023-12-22T11:48:20;96331.53;;;6.30;100.00
19447;BME280;9862;49.462;11.054;2023-12-22T11:50:48;96320.44;;;6.40;100.00
19447;BME280;9862;49.462;11.054;2023-12-22T11:53:18;96329.16;;;6.41;100.00
19447;BME280;9862;49.462;11.054;2023-12-22T11:56:00;96318.94;;;6.44;100.00
19447;BME280;9862;49.462;11.054;2023-12-22T11:58:34;96316.97;;;6.40;100.00
19447;BME280;9862;49.462;11.054;2023-12-22T12:01:01;96307.94;;;6.47;100.00
19447;BME280;9862;49.462;11.054;2023-12-22T12:03:29;96298.44;;;6.58;100.00
19447;BME280;9862;49.462;11.054;2023-12-22T12:06:11;96305.66;;;6.63;100.00
19447;BME280;9862;49.462;11.054;2023-12-22T12:08:37;96304.66;;;6.75;100.00
19447;BME280;9862;49.462;11.054;2023-12-22T12:11:04;96305.59;;;6.81;100.00
19447;BME280;9862;49.462;11.054;2023-12-22T12:13:32;96300.41;;;6.74;100.00
19447;BME280;9862;49.462;11.054;2023-12-22T12:16:00;96279.47;;;6.73;100.00
19447;BME280;9862;49.462;11.054;2023-12-22T12:18:27;96279.50;;;6.84;100.00
19447;BME280;9862;49.462;11.054;2023-12-22T12:20:54;96271.22;;;6.93;100.00
19447;BME280;9862;49.462;11.054;2023-12-22T12:23:24;96284.59;;;6.98;100.00
19447;BME280;9862;49.462;11.054;2023-12-22T12:25:51;96262.88;;;6.96;100.00
19447;BME280;9862;49.462;11.054;2023-12-22T12:28:18;96247.22;;;7.06;100.00
19447;BME280;9862;49.462;11.054;2023-12-22T12:30:54;96228.00;;;7.10;100.00
19447;BME280;9862;49.462;11.054;2023-12-22T12:33:23;96244.69;;;7.11;100.00
19447;BME280;9862;49.462;11.054;2023-12-22T12:35:50;96227.09;;;7.16;100.00
19447;BME280;9862;49.462;11.054;2023-12-22T12:38:18;96236.97;;;7.21;100.00
19447;BME280;9862;49.462;11.054;2023-12-22T12:40:49;96230.31;;;7.18;100.00
19447;BME280;9862;49.462;11.054;2023-12-22T12:43:16;96210.50;;;7.21;100.00
19447;BME280;9862;49.462;11.054;2023-12-22T12:45:43;96230.19;;;7.25;100.00
19447;BME280;9862;49.462;11.054;2023-12-22T12:48:09;96229.38;;;7.36;100.00
19447;BME280;9862;49.462;11.054;2023-12-22T12:50:36;96201.97;;;7.42;100.00
19447;BME280;9862;49.462;11.054;2023-12-22T12:53:02;96200.13;;;7.43;100.00
19447;BME280;9862;49.462;11.054;2023-12-22T12:55:29;96215.88;;;7.50;100.00
19447;BME280;9862;49.462;11.054;2023-12-22T12:57:57;96221.16;;;7.50;100.00
19447;BME280;9862;49.462;11.054;2023-12-22T13:00:24;96213.78;;;7.52;100.00